sensor_id;sensor_type;location;lat;lon;timestamp;P1;durP1;ratioP1;P2;durP2;ratioP2
71677;SDS011;59511;52.136;6.206;2023-10-08T00:00:31;14.88;;;9.77;;
71677;SDS011;59511;52.136;6.206;2023-10-08T00:03:14;15.38;;;10.30;;
71677;SDS011;59511;52.136;6.206;2023-10-08T00:05:41;15.20;;;9.73;;
71677;SDS011;59511;52.136;6.206;2023-10-08T00:08:07;16.58;;;10.02;;
71677;SDS011;59511;52.136;6.206;2023-10-08T00:10:37;17.17;;;10.07;;
71677;SDS011;59511;52.136;6.206;2023-10-08T00:13:06;16.15;;;10.20;;
71677;SDS011;59511;52.136;6.206;2023-10-08T00:15:37;14.63;;;9.70;;
71677;SDS011;59511;52.136;6.206;2023-10-08T00:18:14;14.75;;;9.55;;
71677;SDS011;59511;52.136;6.206;2023-10-08T00:20:40;14.33;;;9.70;;
71677;SDS011;59511;52.136;6.206;2023-10-08T00:23:35;15.38;;;9.45;;
71677;SDS011;59511;52.136;6.206;2023-10-08T00:26:00;13.57;;;9.18;;
71677;SDS011;59511;52.136;6.206;2023-10-08T00:28:30;13.93;;;10.07;;
71677;SDS011;59511;52.136;6.206;2023-10-08T00:30:56;15.05;;;10.02;;
71677;SDS011;59511;52.136;6.206;2023-10-08T00:33:22;16.20;;;10.13;;
71677;SDS011;59511;52.136;6.206;2023-10-08T00:35:48;14.82;;;9.27;;
71677;SDS011;59511;52.136;6.206;2023-10-08T00:38:14;13.10;;;8.73;;
71677;SDS011;59511;52.136;6.206;2023-10-08T00:40:41;17.00;;;10.20;;
71677;SDS011;59511;52.136;6.206;2023-10-08T00:43:10;16.77;;;10.00;;
71677;SDS011;59511;52.136;6.206;2023-10-08T00:45:53;12.93;;;9.05;;
71677;SDS011;59511;52.136;6.206;2023-10-08T00:48:19;14.40;;;9.50;;
71677;SDS011;59511;52.136;6.206;2023-10-08T00:50:47;16.05;;;9.57;;
71677;SDS011;59511;52.136;6.206;2023-10-08T00:53:12;15.37;;;9.47;;
71677;SDS011;59511;52.136;6.206;2023-10-08T00:55:48;14.50;;;9.15;;
71677;SDS011;59511;52.136;6.206;2023-10-08T00:58:29;13.48;;;8.95;;
71677;SDS011;59511;52.136;6.206;2023-10-08T01:00:59;14.77;;;9.77;;
71677;SDS011;59511;52.136;6.206;2023-10-08T01:03:28;16.90;;;9.63;;
71677;SDS011;59511;52.136;6.206;2023-10-08T01:05:54;13.18;;;8.80;;
71677;SDS011;59511;52.136;6.206;2023-10-08T01:08:22;14.65;;;10.00;;
71677;SDS011;59511;52.136;6.206;2023-10-08T01:11:21;14.25;;;8.63;;
71677;SDS011;59511;52.136;6.206;2023-10-08T01:13:58;14.20;;;9.03;;
71677;SDS011;59511;52.136;6.206;2023-10-08T01:16:24;14.82;;;8.95;;
71677;SDS011;59511;52.136;6.206;2023-10-08T01:18:52;13.27;;;8.73;;
71677;SDS011;59511;52.136;6.206;2023-10-08T01:21:19;14.27;;;8.98;;
71677;SDS011;59511;52.136;6.206;2023-10-08T01:23:56;14.27;;;8.73;;
71677;SDS011;59511;52.136;6.206;2023-10-08T01:26:25;15.82;;;8.90;;
71677;SDS011;59511;52.136;6.206;2023-10-08T01:28:51;13.15;;;8.90;;
71677;SDS011;59511;52.136;6.206;2023-10-08T01:31:17;14.30;;;8.75;;
71677;SDS011;59511;52.136;6.206;2023-10-08T01:33:43;15.33;;;8.70;;
71677;SDS011;59511;52.136;6.206;2023-10-08T01:36:15;15.05;;;9.77;;
71677;SDS011;59511;52.136;6.206;2023-10-08T01:38:40;14.10;;;8.87;;
71677;SDS011;59511;52.136;6.206;2023-10-08T01:41:07;15.52;;;9.43;;
71677;SDS011;59511;52.136;6.206;2023-10-08T01:43:44;13.15;;;9.15;;
71677;SDS011;59511;52.136;6.206;2023-10-08T01:46:10;13.20;;;8.83;;
71677;SDS011;59511;52.136;6.206;2023-10-08T01:48:36;14.85;;;9.48;;
71677;SDS011;59511;52.136;6.206;2023-10-08T01:51:02;15.65;;;9.30;;
71677;SDS011;59511;52.136;6.206;2023-10-08T01:53:34;13.40;;;8.93;;
71677;SDS011;59511;52.136;6.206;2023-10-08T01:56:00;16.00;;;9.23;;
71677;SDS011;59511;52.136;6.206;2023-10-08T01:58:26;12.40;;;8.40;;
71677;SDS011;59511;52.136;6.206;2023-10-08T02:00:53;13.80;;;8.87;;
71677;SDS011;59511;52.136;6.206;2023-10-08T02:03:23;14.27;;;9.57;;
71677;SDS011;59511;52.136;6.206;2023-10-08T02:05:49;13.97;;;8.77;;
71677;SDS011;59511;52.136;6.206;2023-10-08T02:08:18;13.30;;;8.80;;
71677;SDS011;59511;52.136;6.206;2023-10-08T02:10:44;13.10;;;8.57;;
71677;SDS011;59511;52.136;6.206;2023-10-08T02:13:12;15.02;;;9.30;;
71677;SDS011;59511;52.136;6.206;2023-10-08T02:15:43;13.57;;;9.07;;
71677;SDS011;59511;52.136;6.206;2023-10-08T02:18:10;12.73;;;8.87;;
71677;SDS011;59511;52.136;6.206;2023-10-08T02:20:36;13.32;;;8.57;;
71677;SDS011;59511;52.136;6.206;2023-10-08T02:23:02;14.17;;;8.63;;
71677;SDS011;59511;52.136;6.206;2023-10-08T02:25:28;13.40;;;8.65;;
71677;SDS011;59511;52.136;6.206;2023-10-08T02:27:54;13.63;;;9.00;;
71677;SDS011;59511;52.136;6.206;2023-10-08T02:30:19;12.90;;;8.63;;
71677;SDS011;59511;52.136;6.206;2023-10-08T02:32:45;14.37;;;9.20;;
71677;SDS011;59511;52.136;6.206;2023-10-08T02:35:11;15.15;;;9.18;;
71677;SDS011;59511;52.136;6.206;2023-10-08T02:37:38;14.00;;;8.80;;
71677;SDS011;59511;52.136;6.206;2023-10-08T02:40:08;12.57;;;8.33;;
71677;SDS011;59511;52.136;6.206;2023-10-08T02:42:44;14.48;;;8.50;;
71677;SDS011;59511;52.136;6.206;2023-10-08T02:45:13;14.65;;;8.73;;
71677;SDS011;59511;52.136;6.206;2023-10-08T02:47:43;13.03;;;8.80;;
71677;SDS011;59511;52.136;6.206;2023-10-08T02:50:11;13.70;;;8.60;;
71677;SDS011;59511;52.136;6.206;2023-10-08T02:52:41;13.25;;;8.75;;
71677;SDS011;59511;52.136;6.206;2023-10-08T02:55:09;15.73;;;8.77;;
71677;SDS011;59511;52.136;6.206;2023-10-08T02:57:48;13.97;;;8.90;;
71677;SDS011;59511;52.136;6.206;2023-10-08T03:00:15;13.55;;;9.02;;
71677;SDS011;59511;52.136;6.206;2023-10-08T03:02:42;13.70;;;8.43;;
71677;SDS011;59511;52.136;6.206;2023-10-08T03:05:07;13.20;;;8.00;;
71677;SDS011;59511;52.136;6.206;2023-10-08T03:07:37;12.65;;;8.73;;
71677;SDS011;59511;52.136;6.206;2023-10-08T03:10:03;13.13;;;8.63;;
71677;SDS011;59511;52.136;6.206;2023-10-08T03:12:29;15.32;;;8.80;;
71677;SDS011;59511;52.136;6.206;2023-10-08T03:15:03;14.45;;;8.95;;
71677;SDS011;59511;52.136;6.206;2023-10-08T03:17:47;13.60;;;8.17;;
71677;SDS011;59511;52.136;6.206;2023-10-08T03:20:22;14.15;;;9.00;;
71677;SDS011;59511;52.136;6.206;2023-10-08T03:23:14;14.27;;;8.80;;
71677;SDS011;59511;52.136;6.206;2023-10-08T03:25:53;13.50;;;8.40;;
71677;SDS011;59511;52.136;6.206;2023-10-08T03:28:27;12.15;;;7.82;;
71677;SDS011;59511;52.136;6.206;2023-10-08T03:30:56;11.50;;;8.00;;
71677;SDS011;59511;52.136;6.206;2023-10-08T03:33:34;11.73;;;8.00;;
71677;SDS011;59511;52.136;6.206;2023-10-08T03:36:05;12.82;;;7.82;;
71677;SDS011;59511;52.136;6.206;2023-10-08T03:38:39;12.15;;;8.05;;
71677;SDS011;59511;52.136;6.206;2023-10-08T03:41:15;12.90;;;8.20;;
71677;SDS011;59511;52.136;6.206;2023-10-08T03:43:57;12.13;;;7.63;;
71677;SDS011;59511;52.136;6.206;2023-10-08T03:46:37;10.70;;;7.32;;
71677;SDS011;59511;52.136;6.206;2023-10-08T03:49:14;11.88;;;7.82;;
71677;SDS011;59511;52.136;6.206;2023-10-08T03:51:50;11.70;;;7.70;;
71677;SDS011;59511;52.136;6.206;2023-10-08T03:54:22;12.20;;;7.82;;
71677;SDS011;59511;52.136;6.206;2023-10-08T03:57:00;11.27;;;7.50;;
71677;SDS011;59511;52.136;6.206;2023-10-08T03:59:29;10.52;;;7.30;;
71677;SDS011;59511;52.136;6.206;2023-10-08T04:01:59;12.23;;;7.40;;
71677;SDS011;59511;52.136;6.206;2023-10-08T04:04:44;12.20;;;7.85;;
71677;SDS011;59511;52.136;6.206;2023-10-08T04:07:22;10.80;;;6.85;;
71677;SDS011;59511;52.136;6.206;2023-10-08T04:10:04;12.60;;;7.50;;
71677;SDS011;59511;52.136;6.206;2023-10-08T04:12:33;10.45;;;6.80;;
71677;SDS011;59511;52.136;6.206;2023-10-08T04:15:02;11.63;;;7.10;;
71677;SDS011;59511;52.136;6.206;2023-10-08T04:17:32;11.35;;;7.43;;
71677;SDS011;59511;52.136;6.206;2023-10-08T04:20:18;11.02;;;7.65;;
71677;SDS011;59511;52.136;6.206;2023-10-08T04:22:58;11.70;;;6.73;;
71677;SDS011;59511;52.136;6.206;2023-10-08T04:25:27;11.20;;;6.78;;
71677;SDS011;59511;52.136;6.206;2023-10-08T04:27:57;10.23;;;7.00;;
71677;SDS011;59511;52.136;6.206;2023-10-08T04:30:33;11.10;;;6.85;;
71677;SDS011;59511;52.136;6.206;2023-10-08T04:33:03;11.15;;;7.20;;
71677;SDS011;59511;52.136;6.206;2023-10-08T04:35:34;9.37;;;6.53;;
71677;SDS011;59511;52.136;6.206;2023-10-08T04:38:13;10.00;;;6.68;;
71677;SDS011;59511;52.136;6.206;2023-10-08T04:40:44;10.82;;;6.80;;
71677;SDS011;59511;52.136;6.206;2023-10-08T04:43:23;12.00;;;6.78;;
71677;SDS011;59511;52.136;6.206;2023-10-08T04:45:56;10.52;;;6.68;;
71677;SDS011;59511;52.136;6.206;2023-10-08T04:48:29;10.73;;;6.90;;
71677;SDS011;59511;52.136;6.206;2023-10-08T04:50:57;10.23;;;6.95;;
71677;SDS011;59511;52.136;6.206;2023-10-08T04:53:27;10.18;;;6.50;;
71677;SDS011;59511;52.136;6.206;2023-10-08T04:56:01;11.02;;;6.50;;
71677;SDS011;59511;52.136;6.206;2023-10-08T04:58:30;10.88;;;6.43;;
71677;SDS011;59511;52.136;6.206;2023-10-08T05:01:05;10.37;;;6.30;;
71677;SDS011;59511;52.136;6.206;2023-10-08T05:03:54;10.27;;;6.45;;
71677;SDS011;59511;52.136;6.206;2023-10-08T05:06:26;9.23;;;6.57;;
71677;SDS011;59511;52.136;6.206;2023-10-08T05:09:05;8.85;;;6.35;;
71677;SDS011;59511;52.136;6.206;2023-10-08T05:11:47;9.80;;;6.82;;
71677;SDS011;59511;52.136;6.206;2023-10-08T05:16:59;8.68;;;6.18;;
71677;SDS011;59511;52.136;6.206;2023-10-08T05:19:43;10.25;;;6.22;;
71677;SDS011;59511;52.136;6.206;2023-10-08T05:22:41;9.20;;;6.07;;
71677;SDS011;59511;52.136;6.206;2023-10-08T05:25:09;8.77;;;6.03;;
71677;SDS011;59511;52.136;6.206;2023-10-08T05:27:41;9.40;;;6.00;;
71677;SDS011;59511;52.136;6.206;2023-10-08T05:33:01;9.15;;;5.80;;
71677;SDS011;59511;52.136;6.206;2023-10-08T05:35:33;9.85;;;6.20;;
71677;SDS011;59511;52.136;6.206;2023-10-08T05:38:06;9.43;;;6.40;;
71677;SDS011;59511;52.136;6.206;2023-10-08T05:40:40;8.63;;;5.70;;
71677;SDS011;59511;52.136;6.206;2023-10-08T05:43:31;9.75;;;5.50;;
71677;SDS011;59511;52.136;6.206;2023-10-08T05:46:04;10.00;;;6.25;;
71677;SDS011;59511;52.136;6.206;2023-10-08T05:51:33;9.95;;;5.75;;
71677;SDS011;59511;52.136;6.206;2023-10-08T05:54:21;8.60;;;5.53;;
71677;SDS011;59511;52.136;6.206;2023-10-08T05:57:06;8.07;;;5.47;;
71677;SDS011;59511;52.136;6.206;2023-10-08T05:59:36;7.97;;;5.32;;
71677;SDS011;59511;52.136;6.206;2023-10-08T06:02:17;10.30;;;5.38;;
71677;SDS011;59511;52.136;6.206;2023-10-08T06:04:58;9.10;;;5.63;;
71677;SDS011;59511;52.136;6.206;2023-10-08T06:07:49;9.57;;;5.37;;
71677;SDS011;59511;52.136;6.206;2023-10-08T06:10:36;8.18;;;5.90;;
71677;SDS011;59511;52.136;6.206;2023-10-08T06:13:08;8.63;;;5.47;;
71677;SDS011;59511;52.136;6.206;2023-10-08T06:15:45;9.45;;;5.30;;
71677;SDS011;59511;52.136;6.206;2023-10-08T06:18:11;8.32;;;5.10;;
71677;SDS011;59511;52.136;6.206;2023-10-08T06:20:39;7.13;;;4.70;;
71677;SDS011;59511;52.136;6.206;2023-10-08T06:23:09;9.30;;;5.35;;
71677;SDS011;59511;52.136;6.206;2023-10-08T06:25:37;8.05;;;5.60;;
71677;SDS011;59511;52.136;6.206;2023-10-08T06:28:14;8.40;;;5.18;;
71677;SDS011;59511;52.136;6.206;2023-10-08T06:30:44;7.88;;;5.50;;
71677;SDS011;59511;52.136;6.206;2023-10-08T06:33:10;8.70;;;5.30;;
71677;SDS011;59511;52.136;6.206;2023-10-08T06:35:36;9.05;;;5.40;;
71677;SDS011;59511;52.136;6.206;2023-10-08T06:38:02;7.77;;;5.23;;
71677;SDS011;59511;52.136;6.206;2023-10-08T06:40:40;7.22;;;4.68;;
71677;SDS011;59511;52.136;6.206;2023-10-08T06:43:05;8.63;;;5.30;;
71677;SDS011;59511;52.136;6.206;2023-10-08T06:45:43;7.57;;;5.40;;
71677;SDS011;59511;52.136;6.206;2023-10-08T06:48:10;8.40;;;5.10;;
71677;SDS011;59511;52.136;6.206;2023-10-08T06:50:43;8.00;;;5.20;;
71677;SDS011;59511;52.136;6.206;2023-10-08T06:53:09;7.80;;;5.10;;
71677;SDS011;59511;52.136;6.206;2023-10-08T06:55:38;8.98;;;5.05;;
71677;SDS011;59511;52.136;6.206;2023-10-08T06:58:05;8.60;;;5.55;;
71677;SDS011;59511;52.136;6.206;2023-10-08T07:00:34;7.60;;;4.93;;
71677;SDS011;59511;52.136;6.206;2023-10-08T07:03:04;8.93;;;5.10;;
71677;SDS011;59511;52.136;6.206;2023-10-08T07:05:29;8.57;;;4.88;;
71677;SDS011;59511;52.136;6.206;2023-10-08T07:08:01;7.97;;;5.00;;
71677;SDS011;59511;52.136;6.206;2023-10-08T07:10:31;8.13;;;4.68;;
71677;SDS011;59511;52.136;6.206;2023-10-08T07:13:00;8.60;;;5.37;;
71677;SDS011;59511;52.136;6.206;2023-10-08T07:15:28;7.60;;;5.00;;
71677;SDS011;59511;52.136;6.206;2023-10-08T07:17:56;8.38;;;4.97;;
71677;SDS011;59511;52.136;6.206;2023-10-08T07:20:24;7.30;;;4.28;;
71677;SDS011;59511;52.136;6.206;2023-10-08T07:22:49;8.60;;;5.33;;
71677;SDS011;59511;52.136;6.206;2023-10-08T07:25:20;6.70;;;4.60;;
71677;SDS011;59511;52.136;6.206;2023-10-08T07:27:46;7.93;;;4.90;;
71677;SDS011;59511;52.136;6.206;2023-10-08T07:30:12;8.05;;;4.70;;
71677;SDS011;59511;52.136;6.206;2023-10-08T07:32:38;8.07;;;4.93;;
71677;SDS011;59511;52.136;6.206;2023-10-08T07:35:04;8.20;;;4.77;;
71677;SDS011;59511;52.136;6.206;2023-10-08T07:37:45;7.53;;;4.97;;
71677;SDS011;59511;52.136;6.206;2023-10-08T07:40:12;8.27;;;4.85;;
71677;SDS011;59511;52.136;6.206;2023-10-08T07:42:38;8.18;;;4.97;;
71677;SDS011;59511;52.136;6.206;2023-10-08T07:45:04;8.05;;;4.68;;
71677;SDS011;59511;52.136;6.206;2023-10-08T07:47:30;8.60;;;5.07;;
71677;SDS011;59511;52.136;6.206;2023-10-08T07:49:55;9.00;;;4.95;;
71677;SDS011;59511;52.136;6.206;2023-10-08T07:52:21;8.00;;;5.03;;
71677;SDS011;59511;52.136;6.206;2023-10-08T07:54:47;6.75;;;4.10;;
71677;SDS011;59511;52.136;6.206;2023-10-08T07:57:13;8.07;;;4.60;;
71677;SDS011;59511;52.136;6.206;2023-10-08T07:59:43;8.65;;;5.05;;
71677;SDS011;59511;52.136;6.206;2023-10-08T08:02:11;7.80;;;4.70;;
71677;SDS011;59511;52.136;6.206;2023-10-08T08:04:38;8.02;;;4.70;;
71677;SDS011;59511;52.136;6.206;2023-10-08T08:07:09;7.75;;;4.35;;
71677;SDS011;59511;52.136;6.206;2023-10-08T08:09:41;8.30;;;5.40;;
71677;SDS011;59511;52.136;6.206;2023-10-08T08:12:09;7.60;;;4.63;;
71677;SDS011;59511;52.136;6.206;2023-10-08T08:14:37;7.75;;;4.32;;
71677;SDS011;59511;52.136;6.206;2023-10-08T08:17:05;7.85;;;4.22;;
71677;SDS011;59511;52.136;6.206;2023-10-08T08:19:39;7.70;;;4.60;;
71677;SDS011;59511;52.136;6.206;2023-10-08T08:22:05;7.03;;;4.70;;
71677;SDS011;59511;52.136;6.206;2023-10-08T08:24:30;7.35;;;4.40;;
71677;SDS011;59511;52.136;6.206;2023-10-08T08:27:00;7.83;;;4.60;;
71677;SDS011;59511;52.136;6.206;2023-10-08T08:29:32;7.88;;;4.60;;
71677;SDS011;59511;52.136;6.206;2023-10-08T08:32:09;7.88;;;4.88;;
71677;SDS011;59511;52.136;6.206;2023-10-08T08:34:37;8.40;;;4.65;;
71677;SDS011;59511;52.136;6.206;2023-10-08T08:37:03;8.47;;;4.70;;
71677;SDS011;59511;52.136;6.206;2023-10-08T08:39:28;8.00;;;4.57;;
71677;SDS011;59511;52.136;6.206;2023-10-08T08:42:00;7.90;;;4.90;;
71677;SDS011;59511;52.136;6.206;2023-10-08T08:44:29;8.13;;;4.80;;
71677;SDS011;59511;52.136;6.206;2023-10-08T08:47:00;9.38;;;4.72;;
71677;SDS011;59511;52.136;6.206;2023-10-08T08:49:29;9.20;;;4.90;;
71677;SDS011;59511;52.136;6.206;2023-10-08T08:51:59;8.40;;;4.93;;
71677;SDS011;59511;52.136;6.206;2023-10-08T08:54:25;7.13;;;4.60;;
71677;SDS011;59511;52.136;6.206;2023-10-08T08:56:52;8.13;;;4.55;;
71677;SDS011;59511;52.136;6.206;2023-10-08T08:59:18;8.05;;;4.63;;
71677;SDS011;59511;52.136;6.206;2023-10-08T09:01:45;8.30;;;4.83;;
71677;SDS011;59511;52.136;6.206;2023-10-08T09:04:12;9.25;;;5.63;;
71677;SDS011;59511;52.136;6.206;2023-10-08T09:06:41;7.75;;;4.63;;
71677;SDS011;59511;52.136;6.206;2023-10-08T09:09:07;7.77;;;4.83;;
71677;SDS011;59511;52.136;6.206;2023-10-08T09:11:51;8.35;;;4.93;;
71677;SDS011;59511;52.136;6.206;2023-10-08T09:14:20;8.05;;;5.28;;
71677;SDS011;59511;52.136;6.206;2023-10-08T09:16:47;8.13;;;4.78;;
71677;SDS011;59511;52.136;6.206;2023-10-08T09:19:13;7.77;;;5.07;;
71677;SDS011;59511;52.136;6.206;2023-10-08T09:21:43;9.32;;;5.15;;
71677;SDS011;59511;52.136;6.206;2023-10-08T09:24:34;8.65;;;4.72;;
71677;SDS011;59511;52.136;6.206;2023-10-08T09:27:06;8.60;;;4.70;;
71677;SDS011;59511;52.136;6.206;2023-10-08T09:29:34;8.27;;;4.85;;
71677;SDS011;59511;52.136;6.206;2023-10-08T09:32:09;8.43;;;4.53;;
71677;SDS011;59511;52.136;6.206;2023-10-08T09:34:38;8.50;;;4.55;;
71677;SDS011;59511;52.136;6.206;2023-10-08T09:37:04;8.13;;;4.70;;
71677;SDS011;59511;52.136;6.206;2023-10-08T09:39:30;8.50;;;5.03;;
71677;SDS011;59511;52.136;6.206;2023-10-08T09:41:59;8.50;;;4.70;;
71677;SDS011;59511;52.136;6.206;2023-10-08T09:44:29;9.00;;;4.88;;
71677;SDS011;59511;52.136;6.206;2023-10-08T09:47:08;9.13;;;4.90;;
71677;SDS011;59511;52.136;6.206;2023-10-08T09:49:50;9.07;;;5.00;;
71677;SDS011;59511;52.136;6.206;2023-10-08T09:52:29;8.68;;;5.03;;
71677;SDS011;59511;52.136;6.206;2023-10-08T09:55:29;8.55;;;4.90;;
71677;SDS011;59511;52.136;6.206;2023-10-08T09:57:54;7.93;;;4.50;;
71677;SDS011;59511;52.136;6.206;2023-10-08T10:00:20;8.15;;;4.80;;
71677;SDS011;59511;52.136;6.206;2023-10-08T10:02:56;10.07;;;5.13;;
71677;SDS011;59511;52.136;6.206;2023-10-08T10:05:28;8.05;;;4.47;;
71677;SDS011;59511;52.136;6.206;2023-10-08T10:07:55;7.87;;;4.67;;
71677;SDS011;59511;52.136;6.206;2023-10-08T10:10:28;8.23;;;4.85;;
71677;SDS011;59511;52.136;6.206;2023-10-08T10:13:02;9.82;;;5.30;;
71677;SDS011;59511;52.136;6.206;2023-10-08T10:15:28;9.32;;;5.00;;
71677;SDS011;59511;52.136;6.206;2023-10-08T10:17:58;9.20;;;4.90;;
71677;SDS011;59511;52.136;6.206;2023-10-08T10:20:24;8.00;;;4.53;;
71677;SDS011;59511;52.136;6.206;2023-10-08T10:22:49;8.55;;;4.80;;
71677;SDS011;59511;52.136;6.206;2023-10-08T10:25:17;8.53;;;4.80;;
71677;SDS011;59511;52.136;6.206;2023-10-08T10:30:20;7.90;;;4.53;;
71677;SDS011;59511;52.136;6.206;2023-10-08T10:32:51;9.00;;;4.88;;
71677;SDS011;59511;52.136;6.206;2023-10-08T10:35:17;8.23;;;4.60;;
71677;SDS011;59511;52.136;6.206;2023-10-08T10:37:46;8.00;;;4.65;;
71677;SDS011;59511;52.136;6.206;2023-10-08T10:40:22;8.25;;;4.47;;
71677;SDS011;59511;52.136;6.206;2023-10-08T10:42:57;8.30;;;4.77;;
71677;SDS011;59511;52.136;6.206;2023-10-08T10:45:22;6.95;;;4.18;;
71677;SDS011;59511;52.136;6.206;2023-10-08T10:48:08;8.65;;;4.68;;
71677;SDS011;59511;52.136;6.206;2023-10-08T10:50:59;8.18;;;4.50;;
71677;SDS011;59511;52.136;6.206;2023-10-08T10:56:11;6.83;;;3.63;;
71677;SDS011;59511;52.136;6.206;2023-10-08T10:58:43;7.45;;;4.53;;
71677;SDS011;59511;52.136;6.206;2023-10-08T11:01:10;7.30;;;4.10;;
71677;SDS011;59511;52.136;6.206;2023-10-08T11:03:51;8.38;;;4.63;;
71677;SDS011;59511;52.136;6.206;2023-10-08T11:06:18;8.40;;;4.38;;
71677;SDS011;59511;52.136;6.206;2023-10-08T11:08:51;7.10;;;4.07;;
71677;SDS011;59511;52.136;6.206;2023-10-08T11:11:18;8.38;;;4.28;;
71677;SDS011;59511;52.136;6.206;2023-10-08T11:13:52;8.13;;;4.30;;
71677;SDS011;59511;52.136;6.206;2023-10-08T11:16:25;6.85;;;3.95;;
71677;SDS011;59511;52.136;6.206;2023-10-08T11:18:51;7.32;;;4.35;;
71677;SDS011;59511;52.136;6.206;2023-10-08T11:21:18;8.33;;;4.03;;
71677;SDS011;59511;52.136;6.206;2023-10-08T11:23:51;6.47;;;4.22;;
71677;SDS011;59511;52.136;6.206;2023-10-08T11:26:37;7.07;;;4.07;;
71677;SDS011;59511;52.136;6.206;2023-10-08T11:29:13;7.55;;;4.10;;
71677;SDS011;59511;52.136;6.206;2023-10-08T11:31:43;6.40;;;3.92;;
71677;SDS011;59511;52.136;6.206;2023-10-08T11:34:10;8.07;;;3.87;;
71677;SDS011;59511;52.136;6.206;2023-10-08T11:36:38;6.82;;;3.63;;
71677;SDS011;59511;52.136;6.206;2023-10-08T11:39:18;7.10;;;3.97;;
71677;SDS011;59511;52.136;6.206;2023-10-08T11:41:55;7.25;;;4.07;;
71677;SDS011;59511;52.136;6.206;2023-10-08T11:44:21;7.40;;;4.10;;
71677;SDS011;59511;52.136;6.206;2023-10-08T11:46:48;6.57;;;3.70;;
71677;SDS011;59511;52.136;6.206;2023-10-08T11:49:17;5.95;;;3.47;;
71677;SDS011;59511;52.136;6.206;2023-10-08T11:51:44;6.13;;;3.30;;
71677;SDS011;59511;52.136;6.206;2023-10-08T11:54:13;7.07;;;4.20;;
71677;SDS011;59511;52.136;6.206;2023-10-08T11:56:39;6.70;;;3.65;;
71677;SDS011;59511;52.136;6.206;2023-10-08T11:59:05;7.07;;;3.87;;
71677;SDS011;59511;52.136;6.206;2023-10-08T12:01:37;6.40;;;3.87;;
71677;SDS011;59511;52.136;6.206;2023-10-08T12:04:07;5.85;;;3.65;;
71677;SDS011;59511;52.136;6.206;2023-10-08T12:06:37;6.70;;;3.70;;
71677;SDS011;59511;52.136;6.206;2023-10-08T12:09:03;6.65;;;3.88;;
71677;SDS011;59511;52.136;6.206;2023-10-08T12:11:36;7.57;;;3.97;;
71677;SDS011;59511;52.136;6.206;2023-10-08T12:14:03;6.20;;;3.60;;
71677;SDS011;59511;52.136;6.206;2023-10-08T12:16:28;6.10;;;3.50;;
71677;SDS011;59511;52.136;6.206;2023-10-08T12:19:00;6.83;;;3.73;;
71677;SDS011;59511;52.136;6.206;2023-10-08T12:21:28;7.00;;;3.80;;
71677;SDS011;59511;52.136;6.206;2023-10-08T12:23:57;6.70;;;4.15;;
71677;SDS011;59511;52.136;6.206;2023-10-08T12:26:23;6.63;;;3.75;;
71677;SDS011;59511;52.136;6.206;2023-10-08T12:28:49;7.10;;;4.13;;
71677;SDS011;59511;52.136;6.206;2023-10-08T12:31:15;5.85;;;3.58;;
71677;SDS011;59511;52.136;6.206;2023-10-08T12:33:47;6.13;;;3.92;;
71677;SDS011;59511;52.136;6.206;2023-10-08T12:36:13;6.47;;;3.57;;
71677;SDS011;59511;52.136;6.206;2023-10-08T12:38:39;5.82;;;3.60;;
71677;SDS011;59511;52.136;6.206;2023-10-08T12:41:09;6.65;;;3.40;;
71677;SDS011;59511;52.136;6.206;2023-10-08T12:43:42;6.17;;;3.80;;
71677;SDS011;59511;52.136;6.206;2023-10-08T12:46:11;6.18;;;3.45;;
71677;SDS011;59511;52.136;6.206;2023-10-08T12:48:43;6.18;;;3.55;;
71677;SDS011;59511;52.136;6.206;2023-10-08T12:51:09;5.57;;;3.40;;
71677;SDS011;59511;52.136;6.206;2023-10-08T12:53:36;5.65;;;3.42;;
71677;SDS011;59511;52.136;6.206;2023-10-08T12:56:06;6.83;;;3.63;;
71677;SDS011;59511;52.136;6.206;2023-10-08T12:58:33;6.03;;;3.88;;
71677;SDS011;59511;52.136;6.206;2023-10-08T13:01:06;5.78;;;3.33;;
71677;SDS011;59511;52.136;6.206;2023-10-08T13:03:34;6.18;;;3.60;;
71677;SDS011;59511;52.136;6.206;2023-10-08T13:06:06;7.40;;;4.00;;
71677;SDS011;59511;52.136;6.206;2023-10-08T13:08:36;5.67;;;3.60;;
71677;SDS011;59511;52.136;6.206;2023-10-08T13:11:02;6.15;;;3.47;;
71677;SDS011;59511;52.136;6.206;2023-10-08T13:13:28;5.15;;;3.08;;
71677;SDS011;59511;52.136;6.206;2023-10-08T13:15:55;6.70;;;3.95;;
71677;SDS011;59511;52.136;6.206;2023-10-08T13:18:23;6.07;;;3.20;;
71677;SDS011;59511;52.136;6.206;2023-10-08T13:20:51;5.70;;;3.70;;
71677;SDS011;59511;52.136;6.206;2023-10-08T13:23:17;5.53;;;3.20;;
71677;SDS011;59511;52.136;6.206;2023-10-08T13:25:48;5.45;;;3.30;;
71677;SDS011;59511;52.136;6.206;2023-10-08T13:28:21;5.95;;;3.35;;
71677;SDS011;59511;52.136;6.206;2023-10-08T13:30:47;5.43;;;3.20;;
71677;SDS011;59511;52.136;6.206;2023-10-08T13:33:17;5.13;;;3.25;;
71677;SDS011;59511;52.136;6.206;2023-10-08T13:35:47;5.38;;;3.05;;
71677;SDS011;59511;52.136;6.206;2023-10-08T13:38:19;5.50;;;3.33;;
71677;SDS011;59511;52.136;6.206;2023-10-08T13:40:45;7.35;;;3.20;;
71677;SDS011;59511;52.136;6.206;2023-10-08T13:43:31;6.60;;;3.67;;
71677;SDS011;59511;52.136;6.206;2023-10-08T13:46:08;5.45;;;3.20;;
71677;SDS011;59511;52.136;6.206;2023-10-08T13:48:41;6.07;;;3.47;;
71677;SDS011;59511;52.136;6.206;2023-10-08T13:51:11;6.18;;;3.42;;
71677;SDS011;59511;52.136;6.206;2023-10-08T13:53:47;5.25;;;3.33;;
71677;SDS011;59511;52.136;6.206;2023-10-08T13:56:17;5.63;;;3.43;;
71677;SDS011;59511;52.136;6.206;2023-10-08T13:58:44;5.43;;;3.10;;
71677;SDS011;59511;52.136;6.206;2023-10-08T14:01:11;5.05;;;3.10;;
71677;SDS011;59511;52.136;6.206;2023-10-08T14:03:45;5.22;;;3.20;;
71677;SDS011;59511;52.136;6.206;2023-10-08T14:06:12;6.38;;;3.22;;
71677;SDS011;59511;52.136;6.206;2023-10-08T14:08:37;5.23;;;3.03;;
71677;SDS011;59511;52.136;6.206;2023-10-08T14:11:04;6.00;;;3.45;;
71677;SDS011;59511;52.136;6.206;2023-10-08T14:13:29;6.43;;;3.20;;
71677;SDS011;59511;52.136;6.206;2023-10-08T14:15:57;5.18;;;3.40;;
71677;SDS011;59511;52.136;6.206;2023-10-08T14:18:24;5.90;;;3.03;;
71677;SDS011;59511;52.136;6.206;2023-10-08T14:20:54;5.88;;;3.20;;
71677;SDS011;59511;52.136;6.206;2023-10-08T14:23:21;4.75;;;3.17;;
71677;SDS011;59511;52.136;6.206;2023-10-08T14:25:49;6.32;;;3.42;;
71677;SDS011;59511;52.136;6.206;2023-10-08T14:28:16;6.35;;;3.35;;
71677;SDS011;59511;52.136;6.206;2023-10-08T14:31:05;4.77;;;2.70;;
71677;SDS011;59511;52.136;6.206;2023-10-08T14:33:30;4.70;;;3.10;;
71677;SDS011;59511;52.136;6.206;2023-10-08T14:36:06;5.45;;;2.90;;
71677;SDS011;59511;52.136;6.206;2023-10-08T14:38:50;5.45;;;3.22;;
71677;SDS011;59511;52.136;6.206;2023-10-08T14:41:34;4.53;;;2.70;;
71677;SDS011;59511;52.136;6.206;2023-10-08T14:44:18;5.07;;;2.92;;
71677;SDS011;59511;52.136;6.206;2023-10-08T14:46:44;5.80;;;3.30;;
71677;SDS011;59511;52.136;6.206;2023-10-08T14:49:09;5.68;;;3.65;;
71677;SDS011;59511;52.136;6.206;2023-10-08T14:51:36;5.87;;;3.27;;
71677;SDS011;59511;52.136;6.206;2023-10-08T14:54:02;6.18;;;3.00;;
71677;SDS011;59511;52.136;6.206;2023-10-08T14:56:28;5.20;;;3.38;;
71677;SDS011;59511;52.136;6.206;2023-10-08T14:58:57;5.47;;;3.60;;
71677;SDS011;59511;52.136;6.206;2023-10-08T15:01:23;5.73;;;3.27;;
71677;SDS011;59511;52.136;6.206;2023-10-08T15:03:50;5.22;;;3.15;;
71677;SDS011;59511;52.136;6.206;2023-10-08T15:06:17;4.90;;;2.90;;
71677;SDS011;59511;52.136;6.206;2023-10-08T15:08:44;5.30;;;2.95;;
71677;SDS011;59511;52.136;6.206;2023-10-08T15:11:09;4.87;;;2.80;;
71677;SDS011;59511;52.136;6.206;2023-10-08T15:13:35;4.65;;;3.10;;
71677;SDS011;59511;52.136;6.206;2023-10-08T15:16:04;5.05;;;3.08;;
71677;SDS011;59511;52.136;6.206;2023-10-08T15:18:29;6.07;;;3.60;;